Aviation Digital Data Service (ADDS)

Output produced by METARs form (0604 UTC 18 January 2018)
found at http://www.aviationweather.gov/adds/metars/
 
UAAA 180500Z VRB01MPS 1200 R05L/1200 R05R/1200 BR BKN004 M11/M12 Q1027 R05L/4/0140 R05R/3///40 NOSIG RMK QBB120
TAF UAAA 180500Z 1806/1906 04005MPS 1500 BR BKN010 BKN020 TXM08/1809Z TNM14/1901Z 
     TEMPO 1806/1809 0800 FZFG BKN004 
     TEMPO 1809/1811 3000 
     TEMPO 1811/1818 0300 FZFG VV002 
     TEMPO 1818/1905 16005MPS 0200 -SN FZFG VV001
       
UAAH 180530Z 07005MPS CAVOK M19/M23 Q1032 R05/720255 NOSIG RMK QFE736/0982
TAF UAAH 180501Z 1806/1815 07005MPS CAVOK
       
UACC 180530Z VRB01MPS CAVOK M21/M24 Q1032 R22/9///50 NOSIG RMK QFE742/0989
TAF UACC 180500Z 1806/1906 18006MPS 9999 SCT010 BKN100 TXM14/1809Z TNM25/1902Z 
     BECMG 1812/1814 11003MPS 
     TEMPO 1819/1904 3000 -SG BR SCT005
       
UACK 180530Z 23003MPS 9999 -SG OVC006 M19/M20 Q1031 R20/450445 NOSIG RMK QBB200 QFE749/0999
TAF UACK 180500Z 1806/1815 24005MPS 9999 SCT007 BKN033 
     TEMPO 1806/1809 2100 BR BKN006
       
UACP 180530Z 22002MPS 4600 -SG BR OVC008 M19/M21 Q1031 R23/3/0534 NOSIG RMK QFE761/1015
TAF UACP 180506Z 1806/1815 22004MPS 3000 -SN BR BKN005 BKN020 
     TEMPO 1806/1812 0700 +SHSN FZFG VV003 BKN020CB
       
UADD 180530Z 21003MPS 7000 NSC M05/M07 Q1024 R13/790545 NOSIG RMK QFE711/0948
TAF UADD 180500Z 1806/1815 34005MPS 3000 BR SCT010 BKN100 
     TEMPO 1811/1815 0400 FZFG VV002
       
UAII 180530Z VRB01MPS 3000 BR NSC M01/M04 Q1025 R28/0///70 NOSIG RMK QFE731/0975
TAF UAII 180500Z 1806/1906 35005MPS 6000 SCT020 BKN100 TX01/1809Z TNM08/1901Z 
     TEMPO 1806/1810 06006MPS 2000 BR SCT010 
     TEMPO 1810/1822 09004MPS 0500 FZFG VV002 
     TEMPO 1822/1902 13004MPS 1000 BR
       
UAKD 180530Z 06004MPS 7000 -SN BKN010 BKN100 M19/M20 Q1029 R04/95//35 NOSIG RMK QFE738/0985
TAF UAKD 180500Z 1806/1815 06005MPS 9999 BKN010 BKN100 
     TEMPO 1806/1809 3000 SN BR BKN007 
     TEMPO 1812/1815 2000 SN BR BKN005
       
UAKK 180530Z 07003MPS CAVOK M20/M24 Q1030 R05/950745 NOSIG RMK QFE725/0967
TAF UAKK 180500Z 1806/1906 VRB02MPS 9999 SCT010 BKN100 TXM13/1809Z TNM26/1901Z 
     TEMPO 1806/1813 07005MPS
       
UAOO 180530Z VRB01MPS CAVOK M09/M10 Q1029 R05/CLRD70 NOSIG RMK QFE760/1013
TAF UAOO 180500Z 1806/1815 09004MPS 9999 BKN020 OVC100 
     TEMPO 1806/1812 VRB02MPS 4000 -SN BR BKN015
       
UARR 180530Z 17004MPS 9999 BKN004 BKN030 M15/M17 Q1029 R22/410150 TEMPO BKN004 RMK QBB130 QFE768/1024
TAF UARR 180500Z 1806/1815 13005MPS 9999 BKN007 
     TEMPO 1806/1812 3000 -SN BR BKN005
       
UASK 180530Z 33002MPS 9999 NSC M10/M16 Q1035 R30/410150 NOSIG RMK QFE750/1000
TAF UASK 180501Z 1806/1815 20005MPS 9999 SCT030 SCT100
       
UASP 180530Z 25002MPS 230V290 4600 -SN BR SCT016 BKN110 M16/M18 Q1034 R21/720345 NOSIG RMK QFE764/1018
TAF UASP 180500Z 1806/1815 26005MPS 3100 FU SCT006 BKN020 
     TEMPO 1806/1813 2100 -SN BR
       
UASS 180530Z 10002MPS CAVOK M16/M19 Q1035 NOSIG RMK QFE758/1011
TAF UASS 180502Z 1806/1815 VRB02MPS 9999 FEW030 SCT100
       
UATE 180530Z 09008MPS 9999 OVC027 M03/M06 Q1017 R12/0///70 NOSIG RMK QFE761/1015
TAF UATE 180507Z 1806/1906 10009G15MPS 9999 OVC015 TX01/1809Z TNM00/1902Z 
     TEMPO 1808/1815 -SNRA
       
UATG 180530Z 09007MPS CAVOK M20/M23 Q1024 R14/82//60 NOSIG RMK QFE770/1027
TAF UATG 180501Z 1806/1906 11008G13MPS 9999 BKN020 TXM08/1811Z TNM19/1903Z 
     BECMG 1815/1816 11007MPS 3000 BR BKN010
       
UATT 180530Z 13004MPS 8000 -SN OVC007 M17/M18 Q1029 R13/420155 NOSIG RMK QFE752/1002
TAF UATT 180500Z 1806/1906 12005MPS 9999 BKN010 TXM12/1812Z TNM22/1901Z 
     TEMPO 1806/1812 3000 -SN BR BKN006 
     TEMPO 1818/1906 3000 BR BKN004
       
UAUU 180530Z 18002MPS 9999 FEW010 M19/M21 Q1030 R15/810058 NOSIG RMK QFE756/1008
TAF UAUU 180500Z 1806/1815 19005MPS 6000 SCT006 BKN010 
     TEMPO 1806/1809 2000 -SN BR 
     TEMPO 1810/1815 2000 -SN BR